Terminal Aerodrome Forecast
Issued by NWS

Home | Current Version | Previous Version | Text Only | Print | Product List | Glossary On
Versions: 1 2 3 4 5 6 7 8 9 10 11 12 13 14 15 16 17 18 19 20 21 22 23 24 25
000
FTPA31 PHFO 271100
TAFOGG
TAF
PHOG 271125Z 2712/2812 VRB03KT P6SM FEW025
     FM272000 01012KT P6SM SCT035 SCT100
     FM280500 03006KT P6SM VCSH SCT020 BKN035
      AMD LTD TO WX VIS AND WIND TIL 271600=

USA.gov is the U.S. government's official web portal to all federal, state and local government web resources and services.